createdAt,value
2023-02-23T00:01:49.453Z,4.18
2023-02-23T00:06:52.276Z,3.30
2023-02-23T00:11:56.229Z,3.45
2023-02-23T00:16:59.924Z,7.53
2023-02-23T00:22:01.960Z,4.43
2023-02-23T00:27:06.437Z,3.70
2023-02-23T00:32:08.706Z,3.60
2023-02-23T00:37:12.237Z,5.30
2023-02-23T00:42:14.509Z,5.63
2023-02-23T00:47:16.432Z,4.60
2023-02-23T00:52:18.565Z,6.13
2023-02-23T00:57:20.321Z,4.40
2023-02-23T01:02:25.146Z,4.63
2023-02-23T01:07:27.000Z,5.10
2023-02-23T01:12:28.779Z,4.07
2023-02-23T01:17:30.710Z,3.72
2023-02-23T01:22:32.473Z,6.50
2023-02-23T01:27:35.480Z,3.30
2023-02-23T01:32:37.972Z,6.88
2023-02-23T01:37:42.846Z,5.32
2023-02-23T01:42:46.961Z,6.07
2023-02-23T01:47:49.268Z,5.15
2023-02-23T01:53:08.009Z,4.72
2023-02-23T01:58:15.392Z,4.95
2023-02-23T02:03:35.225Z,7.03
2023-02-23T02:08:44.855Z,5.45
2023-02-23T02:13:46.679Z,5.78
2023-02-23T02:18:57.521Z,5.47
2023-02-23T02:24:26.941Z,7.30
2023-02-23T02:29:53.194Z,6.88
2023-02-23T02:35:38.088Z,6.03
2023-02-23T02:41:03.927Z,4.78
2023-02-23T02:46:21.519Z,6.65
2023-02-23T02:51:57.136Z,6.20
2023-02-23T02:57:02.253Z,6.40
2023-02-23T03:02:23.834Z,5.00
2023-02-23T03:08:00.734Z,5.90
2023-02-23T03:13:41.199Z,6.82
2023-02-23T03:19:34.066Z,9.18
2023-02-23T03:24:58.345Z,8.05
2023-02-23T03:30:29.167Z,9.13
2023-02-23T03:36:03.182Z,6.47
2023-02-23T03:41:26.993Z,8.98
2023-02-23T03:46:49.037Z,9.65
2023-02-23T03:52:14.760Z,10.05
2023-02-23T03:57:38.086Z,5.82
2023-02-23T04:03:00.323Z,6.25
2023-02-23T04:08:24.757Z,6.88
2023-02-23T04:13:28.301Z,7.47
2023-02-23T04:18:33.414Z,6.75
2023-02-23T04:23:37.018Z,7.38
2023-02-23T04:28:38.844Z,9.02
2023-02-23T04:33:40.597Z,8.20
2023-02-23T04:38:42.378Z,6.15
2023-02-23T04:43:44.198Z,7.70
2023-02-23T04:48:46.012Z,8.10
2023-02-23T04:53:47.884Z,8.63
2023-02-23T04:58:49.727Z,7.63
2023-02-23T05:03:51.948Z,9.30
2023-02-23T05:08:53.734Z,7.70
2023-02-23T05:13:56.131Z,7.20
2023-02-23T05:18:58.130Z,8.07
2023-02-23T05:24:00.192Z,8.73
2023-02-23T05:29:02.097Z,8.80
2023-02-23T05:34:04.264Z,10.10
2023-02-23T05:39:06.182Z,7.43
2023-02-23T05:44:08.001Z,13.43
2023-02-23T05:49:12.585Z,10.48
2023-02-23T05:54:14.529Z,14.38
2023-02-23T05:59:17.391Z,11.60
2023-02-23T06:04:19.333Z,10.57
2023-02-23T06:09:22.247Z,10.50
2023-02-23T06:14:29.251Z,10.50
2023-02-23T06:19:31.731Z,8.57
2023-02-23T06:24:34.399Z,10.40
2023-02-23T06:29:37.412Z,10.52
2023-02-23T06:34:39.331Z,9.90
2023-02-23T06:39:41.264Z,10.27
2023-02-23T06:44:43.028Z,9.25
2023-02-23T06:49:44.838Z,7.93
2023-02-23T06:54:48.203Z,11.15
2023-02-23T06:59:50.215Z,6.97
2023-02-23T07:04:52.020Z,7.88
2023-02-23T07:09:53.926Z,7.80
2023-02-23T07:14:55.684Z,10.38
2023-02-23T07:19:57.563Z,8.73
2023-02-23T07:24:59.342Z,11.23
2023-02-23T07:30:02.964Z,9.77
2023-02-23T07:35:06.275Z,10.63
2023-02-23T07:40:09.218Z,11.20
2023-02-23T07:45:11.421Z,13.02
2023-02-23T07:50:14.006Z,17.35
2023-02-23T07:55:16.173Z,26.13
2023-02-23T08:00:18.481Z,22.90
2023-02-23T08:05:20.244Z,22.38
2023-02-23T08:10:22.379Z,26.13
2023-02-23T08:15:25.384Z,23.40
2023-02-23T08:20:27.732Z,21.30
2023-02-23T08:25:29.574Z,22.23
2023-02-23T08:30:31.816Z,23.98
2023-02-23T08:35:33.630Z,24.08
2023-02-23T08:40:35.388Z,23.35
2023-02-23T08:45:39.516Z,26.92
2023-02-23T08:50:41.326Z,27.65
2023-02-23T08:55:43.129Z,24.40
2023-02-23T09:00:44.987Z,24.67
2023-02-23T09:05:47.130Z,25.80
2023-02-23T09:10:48.989Z,27.77
2023-02-23T09:15:50.871Z,27.67
2023-02-23T09:20:52.655Z,25.95
2023-02-23T09:25:54.518Z,23.23
2023-02-23T09:30:57.552Z,22.38
2023-02-23T09:35:59.381Z,24.88
2023-02-23T09:41:01.368Z,21.35
2023-02-23T09:46:34.792Z,25.83
2023-02-23T09:51:44.032Z,24.45
2023-02-23T09:56:48.096Z,24.48
2023-02-23T10:02:12.256Z,26.65
2023-02-23T10:07:34.679Z,24.92
2023-02-23T10:12:44.456Z,26.25
2023-02-23T10:17:58.991Z,21.42
2023-02-23T10:23:06.864Z,28.33
2023-02-23T10:33:41.301Z,21.70
2023-02-23T10:38:43.233Z,24.88
2023-02-23T10:43:45.760Z,21.88
2023-02-23T10:48:48.639Z,20.80
2023-02-23T10:53:50.483Z,21.30
2023-02-23T10:58:55.548Z,23.85
2023-02-23T11:04:05.981Z,22.45
2023-02-23T11:09:45.056Z,24.42
2023-02-23T11:14:50.495Z,26.65
2023-02-23T11:19:59.075Z,23.02
2023-02-23T11:25:06.616Z,23.95
2023-02-23T11:30:12.963Z,21.60
2023-02-23T11:35:27.984Z,24.73
2023-02-23T11:40:32.311Z,21.15
2023-02-23T11:45:51.636Z,22.08
2023-02-23T11:50:55.330Z,23.70
2023-02-23T11:56:07.771Z,23.55
2023-02-23T12:01:12.454Z,22.65
2023-02-23T12:06:36.921Z,23.17
2023-02-23T12:11:45.118Z,24.65
2023-02-23T12:16:52.094Z,23.02
2023-02-23T12:21:59.478Z,24.13
2023-02-23T12:27:04.233Z,23.15
2023-02-23T12:32:17.927Z,23.55
2023-02-23T12:37:37.460Z,25.02
2023-02-23T12:43:01.063Z,23.63
2023-02-23T12:48:33.269Z,26.60
2023-02-23T12:53:42.075Z,22.50
2023-02-23T12:59:03.368Z,24.17
2023-02-23T13:04:30.385Z,25.17
2023-02-23T13:09:34.915Z,21.55
2023-02-23T13:15:09.847Z,22.92
2023-02-23T13:20:26.517Z,25.40
2023-02-23T13:25:42.948Z,24.38
2023-02-23T13:30:47.477Z,27.02
2023-02-23T13:35:49.955Z,26.55
2023-02-23T13:41:17.633Z,25.42
2023-02-23T13:46:37.191Z,28.47
2023-02-23T13:51:54.956Z,26.10
2023-02-23T13:57:02.388Z,24.00
2023-02-23T14:02:38.772Z,25.50
2023-02-23T14:07:45.118Z,28.48
2023-02-23T14:13:15.701Z,26.52
2023-02-23T14:18:21.454Z,28.15
2023-02-23T14:23:23.210Z,30.98
2023-02-23T14:28:32.502Z,35.03
2023-02-23T14:33:45.723Z,30.75
2023-02-23T14:38:56.912Z,29.95
2023-02-23T14:44:43.270Z,26.58
2023-02-23T14:49:49.114Z,32.80
2023-02-23T14:54:52.401Z,33.40
2023-02-23T15:00:00.073Z,30.30
2023-02-23T15:05:15.855Z,30.17
2023-02-23T15:10:37.364Z,29.10
2023-02-23T15:15:46.142Z,26.52
2023-02-23T15:20:49.134Z,31.60
2023-02-23T15:25:52.738Z,34.78
2023-02-23T15:31:00.494Z,37.10
2023-02-23T15:36:16.331Z,30.33
2023-02-23T15:41:37.332Z,33.40
2023-02-23T15:46:41.613Z,30.50
2023-02-23T15:51:51.545Z,30.45
2023-02-23T15:57:02.281Z,28.08
2023-02-23T16:02:19.606Z,30.60
2023-02-23T16:07:27.385Z,30.13
2023-02-23T16:12:35.961Z,31.42
2023-02-23T16:17:51.908Z,31.60
2023-02-23T16:22:54.876Z,38.90
2023-02-23T16:28:04.724Z,31.23
2023-02-23T16:33:24.889Z,30.48
2023-02-23T16:38:33.664Z,29.52
2023-02-23T16:43:35.529Z,30.15
2023-02-23T16:48:37.382Z,33.80
2023-02-23T16:53:40.582Z,28.70
2023-02-23T16:58:46.814Z,27.88
2023-02-23T17:03:53.153Z,24.13
2023-02-23T17:08:58.752Z,28.13
2023-02-23T17:14:00.576Z,24.55
2023-02-23T17:19:02.411Z,28.73
2023-02-23T17:24:04.451Z,24.02
2023-02-23T17:29:06.188Z,26.17
2023-02-23T17:34:08.122Z,28.15
2023-02-23T17:39:10.583Z,25.70
2023-02-23T17:44:12.423Z,23.02
2023-02-23T17:49:14.288Z,24.80
2023-02-23T17:54:16.107Z,25.30
2023-02-23T17:59:17.918Z,25.30
2023-02-23T18:04:20.170Z,23.92
2023-02-23T18:09:22.095Z,26.90
2023-02-23T18:14:23.832Z,25.45
2023-02-23T18:19:25.819Z,27.40
2023-02-23T18:24:28.249Z,28.83
2023-02-23T18:29:32.373Z,24.00
2023-02-23T18:34:34.784Z,24.05
2023-02-23T18:39:36.611Z,28.75
2023-02-23T18:44:38.493Z,27.45
2023-02-23T18:49:40.400Z,26.83
2023-02-23T18:54:42.340Z,25.35
2023-02-23T18:59:45.376Z,34.33
2023-02-23T19:04:48.361Z,34.15
2023-02-23T19:09:51.410Z,30.20
2023-02-23T19:14:53.179Z,23.75
2023-02-23T19:19:56.177Z,24.95
2023-02-23T19:24:57.935Z,21.67
2023-02-23T19:29:59.852Z,25.70
2023-02-23T19:35:01.831Z,40.40
2023-02-23T19:40:04.231Z,37.78
2023-02-23T19:45:06.551Z,44.67
2023-02-23T19:50:11.460Z,37.58
2023-02-23T19:55:13.436Z,35.40
2023-02-23T20:00:15.614Z,42.95
2023-02-23T20:05:17.626Z,38.10
2023-02-23T20:10:25.514Z,32.55
2023-02-23T20:20:29.314Z,38.03
2023-02-23T20:25:31.100Z,30.20
2023-02-23T20:30:33.013Z,34.50
2023-02-23T20:35:38.310Z,35.83
2023-02-23T20:40:44.717Z,33.60
2023-02-23T20:45:47.673Z,31.35
2023-02-23T20:50:54.154Z,29.67
2023-02-23T20:55:56.040Z,29.58
2023-02-23T21:00:58.095Z,33.88
2023-02-23T21:06:00.414Z,25.13
2023-02-23T21:11:05.051Z,19.42
2023-02-23T21:16:07.454Z,27.58
2023-02-23T21:21:10.236Z,24.52
2023-02-23T21:26:15.951Z,21.08
2023-02-23T21:31:17.930Z,19.38
2023-02-23T21:36:20.085Z,27.60
2023-02-23T21:41:22.289Z,29.15
2023-02-23T21:46:24.958Z,23.33
2023-02-23T21:51:26.876Z,16.45
2023-02-23T21:56:29.639Z,14.30
2023-02-23T22:01:34.705Z,18.92
2023-02-23T22:06:42.262Z,18.23
2023-02-23T22:11:46.747Z,19.80
2023-02-23T22:16:49.739Z,16.67
2023-02-23T22:21:51.547Z,19.77
2023-02-23T22:26:56.244Z,28.80
2023-02-23T22:31:58.352Z,23.80
2023-02-23T22:37:00.223Z,21.83
2023-02-23T22:42:09.172Z,22.02
2023-02-23T22:47:11.023Z,20.20
2023-02-23T22:52:12.810Z,23.00
2023-02-23T22:57:15.015Z,23.80
2023-02-23T23:02:16.877Z,25.08
2023-02-23T23:07:19.898Z,20.08
2023-02-23T23:12:21.743Z,18.40
2023-02-23T23:17:23.643Z,20.30
2023-02-23T23:22:25.893Z,19.83
2023-02-23T23:27:27.625Z,19.27
2023-02-23T23:32:29.567Z,23.73
2023-02-23T23:37:31.390Z,21.40
2023-02-23T23:42:34.802Z,21.63
2023-02-23T23:47:36.618Z,21.40
2023-02-23T23:52:39.615Z,18.90
2023-02-23T23:57:42.129Z,20.85
